createdAt,value
2018-07-20T00:03:23.937Z,12.6
2018-07-20T00:03:38.349Z,12.6
2018-07-20T00:04:39.350Z,12.5
2018-07-20T00:05:39.272Z,12.5
2018-07-20T00:06:39.366Z,12.5
2018-07-20T00:07:39.361Z,12.5
2018-07-20T00:08:39.281Z,12.5
2018-07-20T00:09:39.302Z,12.4
2018-07-20T00:10:39.221Z,12.4
2018-07-20T00:11:40.298Z,12.4
2018-07-20T00:12:39.357Z,12.4
2018-07-20T00:13:39.337Z,12.4
2018-07-20T00:14:39.322Z,12.3
2018-07-20T00:15:39.374Z,12.3
2018-07-20T00:16:39.340Z,12.3
2018-07-20T00:17:39.381Z,12.4
2018-07-20T00:18:39.354Z,12.4
2018-07-20T00:19:39.361Z,12.4
2018-07-20T00:20:39.355Z,12.5
2018-07-20T00:21:40.338Z,12.5
2018-07-20T00:22:39.472Z,12.4
2018-07-20T00:23:39.292Z,12.4
2018-07-20T00:24:39.443Z,12.4
2018-07-20T00:25:39.363Z,12.2
2018-07-20T00:26:39.370Z,12.2
2018-07-20T00:27:39.368Z,12.1
2018-07-20T00:28:39.372Z,12.1
2018-07-20T00:29:39.325Z,12.1
2018-07-20T00:30:39.512Z,12.2
2018-07-20T00:31:40.665Z,12.2
2018-07-20T00:32:39.370Z,12.2
2018-07-20T00:33:39.345Z,12.2
2018-07-20T00:34:39.399Z,12.2
2018-07-20T00:35:39.349Z,12.4
2018-07-20T00:36:39.333Z,12.4
2018-07-20T00:37:39.419Z,12.3
2018-07-20T00:38:39.423Z,12.3
2018-07-20T00:39:39.411Z,12.3
2018-07-20T00:40:39.340Z,12.3
2018-07-20T00:43:45.647Z,12.3
2018-07-20T00:44:45.700Z,12.2
2018-07-20T00:45:45.617Z,12.0
2018-07-20T00:46:45.654Z,12.0
2018-07-20T00:47:46.057Z,12.0
2018-07-20T00:48:45.630Z,12.0
2018-07-20T00:49:45.656Z,12.0
2018-07-20T00:50:45.603Z,12.1
2018-07-20T00:54:58.884Z,12.3
2018-07-20T00:55:58.761Z,12.2
2018-07-20T00:56:58.784Z,12.2
2018-07-20T00:57:58.794Z,12.1
2018-07-20T00:58:58.721Z,12.1
2018-07-20T00:59:58.863Z,12.1
2018-07-20T01:00:58.811Z,12.0
2018-07-20T01:01:58.863Z,12.0
2018-07-20T01:02:58.826Z,11.9
2018-07-20T01:03:58.783Z,11.9
2018-07-20T01:05:27.398Z,11.9
2018-07-20T01:05:58.868Z,11.8
2018-07-20T01:06:58.849Z,11.8
2018-07-20T01:07:58.830Z,11.8
2018-07-20T01:08:58.842Z,11.8
2018-07-20T01:09:58.907Z,11.8
2018-07-20T01:10:58.828Z,11.9
2018-07-20T01:11:58.828Z,11.9
2018-07-20T01:12:58.827Z,11.9
2018-07-20T01:13:58.848Z,11.9
2018-07-20T01:14:58.939Z,11.9
2018-07-20T01:17:12.032Z,11.9
2018-07-20T01:18:12.057Z,11.8
2018-07-20T01:20:13.016Z,11.8
2018-07-20T01:21:12.068Z,11.8
2018-07-20T01:22:12.166Z,11.8
2018-07-20T01:23:12.125Z,11.8
2018-07-20T01:24:12.094Z,11.8
2018-07-20T01:25:12.701Z,11.8
2018-07-20T01:26:12.144Z,11.7
2018-07-20T01:28:04.835Z,11.7
2018-07-20T01:28:14.018Z,11.7
2018-07-20T01:29:14.621Z,11.6
2018-07-20T01:30:13.926Z,11.6
2018-07-20T01:31:13.848Z,11.6
2018-07-20T01:32:14.686Z,11.6
2018-07-20T01:33:13.829Z,11.6
2018-07-20T01:34:13.877Z,11.6
2018-07-20T01:35:13.828Z,11.6
2018-07-20T01:36:13.818Z,11.5
2018-07-20T01:37:13.881Z,11.5
2018-07-20T01:39:26.878Z,11.4
2018-07-20T01:40:26.892Z,11.4
2018-07-20T01:41:26.899Z,11.3
2018-07-20T01:42:26.887Z,11.3
2018-07-20T01:43:26.908Z,11.3
2018-07-20T01:44:26.912Z,11.2
2018-07-20T01:45:26.932Z,11.2
2018-07-20T01:46:26.854Z,11.2
2018-07-20T01:47:27.549Z,11.2
2018-07-20T01:49:26.828Z,11.2
2018-07-20T01:50:26.895Z,11.2
2018-07-20T01:51:26.951Z,11.2
2018-07-20T01:52:26.949Z,11.2
2018-07-20T01:53:26.999Z,11.2
2018-07-20T01:54:26.925Z,11.2
2018-07-20T01:55:26.904Z,11.2
2018-07-20T01:56:26.891Z,11.4
2018-07-20T02:10:33.184Z,11.4
2018-07-20T02:11:34.212Z,11.0
2018-07-20T02:12:34.218Z,11.0
2018-07-20T02:13:34.143Z,11.0
2018-07-20T02:14:34.164Z,10.8
2018-07-20T02:15:35.419Z,10.8
2018-07-20T02:17:34.231Z,10.8
2018-07-20T02:18:34.135Z,10.8
2018-07-20T02:19:34.146Z,10.7
2018-07-20T02:21:47.116Z,10.7
2018-07-20T02:22:47.131Z,10.7
2018-07-20T02:23:47.061Z,10.7
2018-07-20T02:24:47.090Z,10.8
2018-07-20T02:26:47.095Z,11.0
2018-07-20T02:27:46.982Z,11.0
2018-07-20T02:28:47.056Z,11.0
2018-07-20T02:29:47.044Z,10.9
2018-07-20T02:30:47.171Z,10.9
2018-07-20T02:43:05.758Z,10.7
2018-07-20T02:44:05.775Z,10.7
2018-07-20T02:45:07.026Z,10.7
2018-07-20T02:47:05.857Z,10.6
2018-07-20T02:49:05.730Z,10.6
2018-07-20T02:51:05.841Z,10.6
2018-07-20T02:52:05.809Z,10.6
2018-07-20T02:53:07.743Z,10.5
2018-07-20T02:54:05.759Z,10.5
2018-07-20T02:55:05.870Z,10.5
2018-07-20T02:56:05.889Z,10.5
2018-07-20T02:57:05.797Z,10.5
2018-07-20T02:58:05.870Z,10.5
2018-07-20T02:59:06.905Z,10.5
2018-07-20T03:00:05.863Z,10.7
2018-07-20T03:01:05.793Z,10.7
2018-07-20T03:02:05.925Z,10.7
2018-07-20T03:03:06.485Z,10.7
2018-07-20T03:04:05.828Z,10.7
2018-07-20T03:05:05.905Z,10.9
2018-07-20T03:06:05.873Z,10.9
2018-07-20T03:07:06.514Z,10.9
2018-07-20T03:08:06.531Z,11.1
2018-07-20T03:10:06.495Z,11.0
2018-07-20T03:11:05.830Z,11.0
2018-07-20T03:12:05.791Z,11.0
2018-07-20T03:13:05.992Z,10.9
2018-07-20T03:14:06.583Z,10.9
2018-07-20T03:15:05.847Z,10.9
2018-07-20T03:16:05.877Z,10.9
2018-07-20T03:17:05.870Z,10.9
2018-07-20T03:18:05.823Z,10.5
2018-07-20T03:19:05.823Z,10.5
2018-07-20T03:20:05.922Z,10.5
2018-07-20T03:21:21.903Z,10.3
2018-07-20T03:22:05.929Z,10.3
2018-07-20T03:23:06.598Z,10.2
2018-07-20T03:24:05.833Z,10.2
2018-07-20T03:25:05.869Z,10.2
2018-07-20T03:26:05.947Z,10.2
2018-07-20T03:27:05.843Z,10.2
2018-07-20T03:28:05.850Z,10.3
2018-07-20T03:29:05.855Z,10.3
2018-07-20T03:30:05.966Z,10.3
2018-07-20T03:31:06.480Z,10.3
2018-07-20T03:32:05.908Z,10.3
2018-07-20T03:33:05.933Z,10.2
2018-07-20T03:34:05.876Z,10.2
2018-07-20T03:35:05.874Z,10.2
2018-07-20T03:36:05.871Z,10.2
2018-07-20T03:37:05.850Z,10.2
2018-07-20T03:38:05.878Z,10.4
2018-07-20T03:40:05.814Z,10.4
2018-07-20T03:41:05.853Z,10.3
2018-07-20T03:42:05.899Z,10.3
2018-07-20T03:43:05.868Z,10.2
2018-07-20T03:44:05.875Z,10.2
2018-07-20T03:45:05.950Z,10.2
2018-07-20T03:46:05.915Z,10.2
2018-07-20T03:47:05.916Z,10.2
2018-07-20T03:48:05.974Z,10.2
2018-07-20T03:49:05.965Z,10.2
2018-07-20T03:50:05.854Z,10.2
2018-07-20T03:51:05.918Z,10.2
2018-07-20T03:52:05.999Z,10.2
2018-07-20T03:53:05.916Z,10.2
2018-07-20T03:54:05.961Z,10.2
2018-07-20T03:55:05.950Z,10.2
2018-07-20T03:56:05.964Z,10.2
2018-07-20T03:57:05.901Z,10.2
2018-07-20T03:58:05.974Z,10.2
2018-07-20T03:59:05.910Z,10.2
2018-07-20T04:00:06.019Z,10.2
2018-07-20T04:01:05.889Z,10.2
2018-07-20T04:02:05.878Z,10.2
2018-07-20T04:03:05.913Z,10.2
2018-07-20T04:04:05.914Z,10.4
2018-07-20T04:05:05.888Z,10.4
2018-07-20T04:06:05.933Z,10.4
2018-07-20T04:07:05.907Z,10.4
2018-07-20T04:08:05.960Z,10.4
2018-07-20T04:09:06.379Z,10.4
2018-07-20T04:10:05.901Z,10.4
2018-07-20T04:11:06.016Z,10.5
2018-07-20T04:12:05.982Z,10.5
2018-07-20T04:13:05.944Z,10.5
2018-07-20T04:14:06.464Z,10.6
2018-07-20T04:15:06.031Z,10.6
2018-07-20T04:16:06.060Z,10.7
2018-07-20T04:17:05.952Z,10.7
2018-07-20T04:19:05.912Z,10.7
2018-07-20T04:20:05.980Z,10.7
2018-07-20T04:21:06.008Z,10.7
2018-07-20T04:22:06.110Z,10.8
2018-07-20T04:24:05.996Z,11.0
2018-07-20T04:25:05.927Z,11.0
2018-07-20T04:26:05.936Z,11.0
2018-07-20T04:27:05.988Z,11.2
2018-07-20T04:29:06.022Z,11.4
2018-07-20T04:30:08.447Z,11.4
2018-07-20T04:31:06.009Z,11.4
2018-07-20T04:33:06.272Z,11.6
2018-07-20T04:34:05.925Z,11.7
2018-07-20T04:35:05.956Z,11.7
2018-07-20T04:36:06.032Z,11.7
2018-07-20T04:37:06.036Z,11.7
2018-07-20T04:38:06.032Z,11.7
2018-07-20T04:39:06.142Z,11.9
2018-07-20T04:40:06.065Z,11.9
2018-07-20T04:41:05.988Z,11.9
2018-07-20T04:42:06.661Z,12.1
2018-07-20T04:43:06.056Z,12.1
2018-07-20T04:44:05.988Z,12.2
2018-07-20T04:45:09.556Z,12.2
2018-07-20T04:46:06.444Z,12.2
2018-07-20T04:48:06.044Z,12.4
2018-07-20T04:49:06.166Z,12.6
2018-07-20T04:50:06.201Z,12.6
2018-07-20T04:51:06.675Z,12.6
2018-07-20T04:52:20.903Z,12.7
2018-07-20T04:54:06.075Z,12.7
2018-07-20T04:58:05.968Z,12.9
2018-07-20T04:59:06.008Z,12.9
2018-07-20T05:00:09.906Z,13.2
2018-07-20T05:01:09.504Z,13.2
2018-07-20T05:02:06.546Z,13.2
2018-07-20T05:03:06.592Z,13.2
2018-07-20T05:06:21.608Z,13.4
2018-07-20T05:08:15.374Z,13.5
2018-07-20T05:10:25.981Z,13.6
2018-07-20T05:20:24.000Z,13.7
2018-07-20T05:20:44.721Z,13.7
2018-07-20T05:21:40.061Z,14.3
2018-07-20T05:23:41.651Z,14.4
2018-07-20T05:24:47.194Z,14.4
2018-07-20T05:25:44.470Z,14.8
2018-07-20T05:27:51.220Z,15.2
2018-07-20T05:38:37.827Z,15.2
2018-07-20T05:39:35.167Z,16.2
2018-07-20T05:40:35.156Z,16.4
2018-07-20T05:41:35.164Z,16.4
2018-07-20T05:42:35.224Z,16.6
2018-07-20T05:43:35.223Z,16.6
2018-07-20T05:44:35.220Z,16.6
2018-07-20T05:45:35.214Z,16.9
2018-07-20T05:46:35.255Z,16.9
2018-07-20T05:50:48.370Z,17.4
2018-07-20T05:51:48.393Z,17.4
2018-07-20T05:53:48.441Z,17.6
2018-07-20T05:54:48.382Z,17.6
2018-07-20T05:56:48.434Z,17.9
2018-07-20T05:57:48.353Z,17.9
2018-07-20T05:58:48.432Z,17.9
2018-07-20T05:59:49.475Z,17.9
2018-07-20T06:00:48.438Z,18.4
2018-07-20T06:02:48.480Z,18.4
2018-07-20T06:03:48.455Z,18.7
2018-07-20T06:04:48.479Z,18.7
2018-07-20T06:05:48.502Z,19.2
2018-07-20T06:06:48.422Z,19.2
2018-07-20T06:07:48.503Z,19.2
2018-07-20T06:08:48.432Z,19.5
2018-07-20T06:09:49.002Z,19.5
2018-07-20T06:10:49.381Z,19.4
2018-07-20T06:11:48.436Z,19.4
2018-07-20T06:12:48.433Z,19.4
2018-07-20T06:13:48.458Z,19.5
2018-07-20T06:14:48.483Z,19.5
2018-07-20T06:15:48.425Z,19.3
2018-07-20T06:16:48.392Z,19.3
2018-07-20T06:17:48.560Z,19.3
2018-07-20T06:18:48.446Z,19.0
2018-07-20T06:19:49.017Z,19.0
2018-07-20T06:20:48.423Z,19.6
2018-07-20T06:22:48.451Z,19.6
2018-07-20T06:23:48.540Z,20.0
2018-07-20T06:24:48.437Z,20.0
2018-07-20T06:25:48.458Z,19.7
2018-07-20T06:26:48.473Z,19.7
2018-07-20T06:27:48.451Z,19.7
2018-07-20T06:28:48.553Z,20.0
2018-07-20T06:29:49.165Z,20.0
2018-07-20T06:30:48.467Z,19.8
2018-07-20T06:31:48.509Z,19.8
2018-07-20T06:32:48.481Z,19.8
2018-07-20T06:33:48.421Z,20.0
2018-07-20T06:34:48.526Z,20.0
2018-07-20T06:35:48.420Z,20.0
2018-07-20T06:36:48.462Z,20.2
2018-07-20T06:37:48.475Z,20.2
2018-07-20T06:41:29.448Z,20.2
2018-07-20T06:41:39.586Z,20.2
2018-07-20T06:42:39.595Z,20.7
2018-07-20T06:43:39.634Z,20.8
2018-07-20T06:44:39.663Z,20.8
2018-07-20T06:45:39.509Z,20.8
2018-07-20T06:46:39.656Z,20.8
2018-07-20T06:47:39.540Z,20.8
2018-07-20T06:48:39.485Z,20.5
2018-07-20T06:49:39.606Z,20.5
2018-07-20T06:50:39.570Z,20.5
2018-07-20T06:51:39.491Z,20.6
2018-07-20T06:52:39.556Z,20.6
2018-07-20T06:53:39.520Z,20.6
2018-07-20T06:54:39.690Z,20.6
2018-07-20T06:55:39.560Z,20.6
2018-07-20T06:56:39.579Z,21.0
2018-07-20T06:57:39.575Z,21.0
2018-07-20T06:58:39.566Z,21.0
2018-07-20T06:59:39.683Z,21.6
2018-07-20T07:00:39.552Z,21.6
2018-07-20T07:01:39.605Z,21.4
2018-07-20T07:02:39.652Z,21.4
2018-07-20T07:03:39.591Z,21.4
2018-07-20T07:04:39.668Z,21.8
2018-07-20T07:05:39.668Z,21.8
2018-07-20T07:06:39.542Z,22.0
2018-07-20T07:07:41.918Z,22.0
2018-07-20T07:08:39.658Z,22.0
2018-07-20T07:11:39.556Z,22.7
2018-07-20T07:12:39.684Z,22.7
2018-07-20T07:13:39.703Z,22.7
2018-07-20T07:14:39.662Z,23.5
2018-07-20T07:15:39.669Z,23.5
2018-07-20T07:16:39.631Z,23.8
2018-07-20T07:17:40.681Z,23.8
2018-07-20T07:18:39.665Z,23.8
2018-07-20T07:19:39.681Z,23.8
2018-07-20T07:20:39.698Z,23.8
2018-07-20T07:21:39.666Z,24.2
2018-07-20T07:22:39.704Z,24.2
2018-07-20T07:23:39.793Z,24.2
2018-07-20T07:24:39.685Z,24.6
2018-07-20T07:25:39.617Z,24.6
2018-07-20T07:26:39.660Z,24.6
2018-07-20T07:27:39.694Z,25.1
2018-07-20T07:28:39.689Z,25.1
2018-07-20T07:29:39.660Z,25.2
2018-07-20T07:30:39.719Z,25.2
2018-07-20T07:32:39.641Z,24.9
2018-07-20T07:33:39.701Z,24.9
2018-07-20T07:34:39.649Z,25.4
2018-07-20T07:35:40.429Z,25.4
2018-07-20T07:37:39.643Z,25.8
2018-07-20T07:38:39.659Z,25.8
2018-07-20T07:39:39.677Z,26.0
2018-07-20T07:40:39.679Z,26.0
2018-07-20T07:41:39.738Z,26.0
2018-07-20T07:42:39.696Z,26.5
2018-07-20T07:44:07.988Z,26.5
2018-07-20T07:44:39.713Z,26.7
2018-07-20T07:45:39.697Z,26.7
2018-07-20T07:47:39.712Z,26.2
2018-07-20T07:48:39.810Z,26.2
2018-07-20T07:50:39.738Z,26.1
2018-07-20T07:51:39.689Z,26.1
2018-07-20T07:52:39.707Z,26.3
2018-07-20T07:53:39.715Z,26.3
2018-07-20T07:54:40.811Z,26.5
2018-07-20T07:55:39.657Z,26.5
2018-07-20T07:56:39.722Z,26.5
2018-07-20T07:57:39.706Z,26.0
2018-07-20T07:58:39.778Z,26.0
2018-07-20T07:59:39.727Z,26.0
2018-07-20T08:01:40.539Z,26.0
2018-07-20T08:03:39.713Z,25.6
2018-07-20T08:15:44.596Z,25.6
2018-07-20T08:16:44.510Z,25.6
2018-07-20T08:17:44.627Z,25.0
2018-07-20T08:18:44.551Z,25.0
2018-07-20T08:19:44.617Z,25.0
2018-07-20T08:20:44.538Z,25.1
2018-07-20T08:21:44.602Z,25.1
2018-07-20T08:22:44.603Z,25.2
2018-07-20T08:23:44.547Z,25.2
2018-07-20T08:24:44.535Z,25.2
2018-07-20T08:25:44.597Z,25.4
2018-07-20T08:26:44.572Z,25.4
2018-07-20T08:27:44.560Z,25.4
2018-07-20T08:28:44.566Z,25.4
2018-07-20T08:29:44.549Z,25.4
2018-07-20T08:30:44.555Z,25.3
2018-07-20T08:31:44.599Z,25.3
2018-07-20T08:32:44.655Z,25.3
2018-07-20T08:35:44.603Z,25.6
2018-07-20T08:36:45.235Z,25.6
2018-07-20T08:37:44.654Z,25.6
2018-07-20T08:38:44.598Z,25.6
2018-07-20T08:39:44.574Z,25.6
2018-07-20T08:40:44.558Z,25.6
2018-07-20T08:42:44.605Z,25.6
2018-07-20T08:43:44.547Z,25.6
2018-07-20T08:54:33.501Z,25.6
2018-07-20T08:55:32.940Z,25.6
2018-07-20T08:56:32.946Z,25.6
2018-07-20T08:58:32.975Z,25.7
2018-07-20T08:59:32.972Z,25.7
2018-07-20T09:00:32.980Z,25.7
2018-07-20T09:01:32.951Z,25.8
2018-07-20T09:02:33.059Z,25.8
2018-07-20T09:03:33.006Z,25.8
2018-07-20T09:04:32.995Z,25.8
2018-07-20T09:05:32.902Z,25.8
2018-07-20T09:06:32.950Z,25.5
2018-07-20T09:07:32.885Z,25.5
2018-07-20T09:08:32.987Z,25.6
2018-07-20T09:09:32.981Z,25.6
2018-07-20T09:10:32.968Z,25.6
2018-07-20T09:11:33.014Z,25.6
2018-07-20T09:12:32.914Z,25.6
2018-07-20T09:14:25.608Z,25.6
2018-07-20T09:14:35.782Z,25.6
2018-07-20T09:15:35.747Z,25.6
2018-07-20T09:16:35.751Z,25.6
2018-07-20T09:17:35.733Z,25.6
2018-07-20T09:18:35.812Z,25.6
2018-07-20T09:19:35.705Z,25.6
2018-07-20T09:21:35.752Z,25.6
2018-07-20T09:22:35.742Z,25.6
2018-07-20T09:23:35.783Z,25.6
2018-07-20T09:25:48.136Z,25.7
2018-07-20T09:26:48.215Z,25.9
2018-07-20T09:27:48.191Z,25.9
2018-07-20T09:28:48.170Z,25.8
2018-07-20T09:29:48.200Z,25.8
2018-07-20T09:30:48.153Z,25.8
2018-07-20T09:31:48.268Z,26.0
2018-07-20T09:32:48.190Z,26.0
2018-07-20T09:33:48.186Z,26.1
2018-07-20T09:34:48.214Z,26.1
2018-07-20T09:43:59.049Z,26.1
2018-07-20T09:44:13.216Z,26.1
2018-07-20T09:45:14.187Z,26.6
2018-07-20T09:46:14.192Z,26.6
2018-07-20T09:48:14.233Z,27.1
2018-07-20T09:49:14.154Z,27.3
2018-07-20T09:51:14.186Z,27.3
2018-07-20T09:52:14.196Z,27.7
2018-07-20T09:53:14.306Z,27.7
2018-07-20T09:54:14.236Z,27.7
2018-07-20T09:55:14.249Z,27.7
2018-07-20T09:56:14.179Z,27.7
2018-07-20T09:57:14.844Z,27.2
2018-07-20T09:59:14.174Z,27.5
2018-07-20T10:01:14.219Z,27.5
2018-07-20T10:08:47.424Z,27.5
2018-07-20T10:08:58.486Z,27.5
2018-07-20T10:09:58.559Z,27.5
2018-07-20T10:10:58.546Z,27.5
2018-07-20T10:11:58.523Z,27.3
2018-07-20T10:12:58.590Z,27.3
2018-07-20T10:13:58.539Z,27.3
2018-07-20T10:14:58.567Z,27.2
2018-07-20T10:15:58.539Z,27.2
2018-07-20T10:16:58.529Z,27.2
2018-07-20T10:17:59.724Z,27.4
2018-07-20T10:18:58.559Z,27.4
2018-07-20T10:19:58.583Z,27.8
2018-07-20T10:20:58.530Z,27.8
2018-07-20T10:21:58.524Z,27.8
2018-07-20T10:24:58.524Z,28.3
2018-07-20T10:25:58.562Z,28.3
2018-07-20T10:26:58.632Z,28.3
2018-07-20T10:27:58.618Z,29.0
2018-07-20T10:28:58.555Z,29.0
2018-07-20T10:29:58.602Z,28.7
2018-07-20T10:31:58.689Z,28.7
2018-07-20T10:32:58.624Z,28.3
2018-07-20T10:33:58.653Z,28.3
2018-07-20T10:34:58.610Z,28.2
2018-07-20T10:35:58.606Z,28.2
2018-07-20T10:36:58.609Z,28.2
2018-07-20T10:37:58.593Z,27.7
2018-07-20T10:38:58.636Z,27.7
2018-07-20T10:40:58.549Z,27.6
2018-07-20T10:41:58.530Z,27.6
2018-07-20T10:42:59.210Z,27.6
2018-07-20T10:43:58.612Z,27.6
2018-07-20T10:44:58.625Z,28.4
2018-07-20T10:52:40.384Z,28.4
2018-07-20T10:53:40.194Z,28.8
2018-07-20T10:55:40.117Z,29.9
2018-07-20T10:56:40.143Z,29.9
2018-07-20T10:57:40.150Z,30.5
2018-07-20T10:58:40.156Z,30.5
2018-07-20T10:59:40.170Z,30.5
2018-07-20T11:00:40.231Z,30.8
2018-07-20T11:01:40.234Z,30.8
2018-07-20T11:02:40.097Z,30.8
2018-07-20T11:03:40.148Z,31.0
2018-07-20T11:04:40.122Z,31.0
2018-07-20T11:05:40.153Z,31.0
2018-07-20T11:06:40.245Z,31.0
2018-07-20T11:07:40.143Z,31.0
2018-07-20T11:09:40.697Z,29.9
2018-07-20T11:10:40.137Z,29.9
2018-07-20T11:11:40.176Z,29.9
2018-07-20T11:12:40.724Z,29.9
2018-07-20T11:13:40.204Z,29.9
2018-07-20T11:14:40.294Z,29.9
2018-07-20T11:15:40.232Z,30.4
2018-07-20T11:17:40.154Z,30.4
2018-07-20T11:18:40.166Z,30.1
2018-07-20T11:19:40.768Z,30.1
2018-07-20T11:20:40.194Z,30.1
2018-07-20T11:21:40.187Z,30.1
2018-07-20T11:22:40.291Z,30.1
2018-07-20T11:23:40.236Z,30.1
2018-07-20T11:24:40.217Z,30.1
2018-07-20T11:25:40.156Z,30.0
2018-07-20T11:27:40.192Z,30.0
2018-07-20T11:29:42.356Z,30.4
2018-07-20T11:30:40.248Z,30.4
2018-07-20T11:31:40.227Z,29.9
2018-07-20T11:32:40.230Z,29.9
2018-07-20T11:33:40.240Z,30.0
2018-07-20T11:34:40.251Z,30.0
2018-07-20T11:35:40.233Z,30.0
2018-07-20T11:36:40.194Z,29.9
2018-07-20T11:37:40.258Z,29.9
2018-07-20T11:38:40.287Z,28.5
2018-07-20T11:39:41.271Z,28.5
2018-07-20T11:40:40.174Z,28.5
2018-07-20T11:41:40.209Z,28.2
2018-07-20T11:42:40.296Z,28.2
2018-07-20T11:43:40.241Z,28.5
2018-07-20T11:44:40.221Z,28.5
2018-07-20T11:45:40.354Z,28.5
2018-07-20T11:46:40.294Z,28.8
2018-07-20T11:47:40.198Z,28.8
2018-07-20T11:48:40.199Z,28.9
2018-07-20T11:49:40.257Z,28.9
2018-07-20T11:50:40.318Z,28.9
2018-07-20T11:51:40.293Z,28.9
2018-07-20T11:53:40.265Z,29.0
2018-07-20T11:54:40.286Z,29.0
2018-07-20T11:55:40.238Z,29.0
2018-07-20T11:56:40.271Z,28.9
2018-07-20T11:58:40.227Z,28.7
2018-07-20T12:00:08.562Z,28.7
2018-07-20T12:00:40.359Z,28.7
2018-07-20T12:01:40.265Z,29.0
2018-07-20T12:02:40.931Z,29.0
2018-07-20T12:03:40.295Z,29.0
2018-07-20T12:05:40.258Z,29.0
2018-07-20T12:06:40.207Z,29.4
2018-07-20T12:07:40.232Z,29.4
2018-07-20T12:08:40.244Z,29.4
2018-07-20T12:09:40.262Z,28.7
2018-07-20T12:11:53.442Z,28.3
2018-07-20T12:12:53.429Z,28.3
2018-07-20T12:13:53.437Z,28.3
2018-07-20T12:14:53.497Z,27.9
2018-07-20T12:15:53.478Z,27.9
2018-07-20T12:16:53.480Z,28.1
2018-07-20T12:17:53.488Z,28.1
2018-07-20T12:18:53.547Z,28.1
2018-07-20T12:19:53.469Z,28.5
2018-07-20T12:20:53.498Z,28.5
2018-07-20T12:22:53.566Z,29.4
2018-07-20T12:23:53.482Z,29.4
2018-07-20T12:24:53.576Z,30.2
2018-07-20T12:25:53.494Z,30.2
2018-07-20T12:26:53.616Z,30.8
2018-07-20T12:27:53.450Z,30.8
2018-07-20T12:28:53.472Z,30.8
2018-07-20T12:29:53.566Z,30.7
2018-07-20T12:30:53.554Z,30.7
2018-07-20T12:31:53.564Z,30.7
2018-07-20T12:32:53.573Z,30.7
2018-07-20T12:34:53.559Z,30.1
2018-07-20T12:35:53.551Z,30.1
2018-07-20T12:36:53.589Z,29.9
2018-07-20T12:37:53.460Z,29.9
2018-07-20T12:38:53.572Z,29.9
2018-07-20T12:39:53.527Z,30.3
2018-07-20T12:41:46.102Z,30.3
2018-07-20T12:41:55.125Z,30.3
2018-07-20T12:42:55.126Z,30.2
2018-07-20T12:43:55.146Z,30.2
2018-07-20T12:44:55.317Z,30.2
2018-07-20T12:45:55.251Z,30.2
2018-07-20T12:46:55.120Z,30.2
2018-07-20T12:47:55.131Z,30.2
2018-07-20T12:48:55.190Z,30.2
2018-07-20T12:49:55.178Z,30.4
2018-07-20T12:50:55.165Z,30.4
2018-07-20T12:51:56.167Z,30.4
2018-07-20T12:52:55.234Z,30.9
2018-07-20T12:53:55.120Z,30.9
2018-07-20T12:54:55.151Z,30.8
2018-07-20T12:55:55.191Z,30.8
2018-07-20T12:56:55.193Z,30.8
2018-07-20T12:57:55.152Z,31.6
2018-07-20T12:59:55.228Z,31.9
2018-07-20T13:00:55.194Z,31.9
2018-07-20T13:01:55.817Z,31.9
2018-07-20T13:02:55.191Z,32.0
2018-07-20T13:03:55.258Z,32.0
2018-07-20T13:04:55.201Z,30.8
2018-07-20T13:05:55.143Z,30.8
2018-07-20T13:06:55.240Z,30.8
2018-07-20T13:07:55.314Z,31.1
2018-07-20T13:08:55.158Z,31.1
2018-07-20T13:09:55.174Z,31.6
2018-07-20T13:10:55.124Z,31.6
2018-07-20T13:11:55.277Z,31.6
2018-07-20T13:12:55.252Z,31.6
2018-07-20T13:13:55.181Z,31.6
2018-07-20T13:14:55.199Z,31.0
2018-07-20T13:15:55.249Z,31.0
2018-07-20T13:16:55.194Z,31.0
2018-07-20T13:18:55.274Z,31.1
2018-07-20T13:19:55.258Z,31.1
2018-07-20T13:22:55.224Z,32.4
2018-07-20T13:23:55.176Z,32.4
2018-07-20T13:24:55.303Z,32.4
2018-07-20T13:26:55.201Z,32.4
2018-07-20T13:27:55.260Z,32.8
2018-07-20T13:28:55.218Z,32.8
2018-07-20T13:30:57.330Z,32.9
2018-07-20T13:31:55.284Z,32.9
2018-07-20T13:32:55.187Z,32.8
2018-07-20T13:33:55.301Z,32.8
2018-07-20T13:34:55.379Z,32.8
2018-07-20T13:35:55.224Z,31.9
2018-07-20T13:36:55.297Z,31.9
2018-07-20T13:37:56.012Z,31.9
2018-07-20T13:39:55.322Z,31.9
2018-07-20T13:40:55.972Z,31.8
2018-07-20T13:41:56.247Z,31.8
2018-07-20T13:42:55.254Z,30.6
2018-07-20T13:43:55.322Z,30.6
2018-07-20T13:46:55.266Z,30.3
2018-07-20T13:47:55.270Z,30.3
2018-07-20T13:48:55.207Z,30.5
2018-07-20T13:49:55.993Z,30.5
2018-07-20T13:52:36.373Z,30.2
2018-07-20T13:52:51.497Z,30.2
2018-07-20T13:54:51.349Z,29.8
2018-07-20T13:55:51.467Z,29.2
2018-07-20T13:56:51.443Z,29.2
2018-07-20T13:57:51.346Z,29.2
2018-07-20T13:58:51.446Z,28.6
2018-07-20T13:59:51.461Z,28.6
2018-07-20T14:00:51.410Z,28.1
2018-07-20T14:01:51.437Z,28.1
2018-07-20T14:02:52.016Z,28.1
2018-07-20T14:03:51.352Z,28.1
2018-07-20T14:04:52.001Z,28.1
2018-07-20T14:05:51.461Z,28.1
2018-07-20T14:06:51.519Z,28.1
2018-07-20T14:07:51.356Z,28.1
2018-07-20T14:08:51.352Z,28.2
2018-07-20T14:09:51.427Z,28.2
2018-07-20T14:10:52.135Z,28.2
2018-07-20T14:11:51.443Z,28.2
2018-07-20T14:12:51.424Z,28.2
2018-07-20T14:13:52.410Z,28.7
2018-07-20T14:14:52.013Z,28.7
2018-07-20T14:15:51.471Z,28.7
2018-07-20T14:16:51.462Z,29.3
2018-07-20T14:18:51.409Z,29.7
2018-07-20T14:19:51.400Z,29.7
2018-07-20T14:21:07.801Z,29.7
2018-07-20T14:22:51.459Z,29.7
2018-07-20T14:23:51.415Z,29.8
2018-07-20T14:25:51.427Z,29.8
2018-07-20T14:26:51.466Z,30.2
2018-07-20T14:27:51.397Z,30.2
2018-07-20T14:28:51.449Z,30.8
2018-07-20T14:31:19.798Z,30.8
2018-07-20T14:31:51.517Z,30.8
2018-07-20T14:32:51.481Z,30.8
2018-07-20T14:33:51.479Z,30.7
2018-07-20T14:35:51.419Z,30.7
2018-07-20T14:36:51.424Z,30.6
2018-07-20T14:37:51.524Z,30.6
2018-07-20T14:38:51.458Z,30.6
2018-07-20T14:39:51.445Z,30.6
2018-07-20T14:41:53.090Z,30.4
2018-07-20T14:42:51.408Z,30.4
2018-07-20T14:43:51.446Z,30.4
2018-07-20T14:44:51.468Z,30.1
2018-07-20T14:46:51.498Z,30.1
2018-07-20T14:47:51.433Z,30.1
2018-07-20T14:48:51.500Z,30.1
2018-07-20T14:49:51.525Z,30.6
2018-07-20T14:50:51.443Z,30.6
2018-07-20T14:51:51.487Z,30.8
2018-07-20T14:52:51.448Z,30.8
2018-07-20T14:53:51.514Z,30.8
2018-07-20T14:54:52.067Z,31.0
2018-07-20T14:55:51.517Z,31.0
2018-07-20T14:56:51.568Z,31.1
2018-07-20T14:57:52.157Z,31.1
2018-07-20T14:58:51.516Z,31.1
2018-07-20T14:59:51.547Z,31.7
2018-07-20T15:00:53.734Z,31.7
2018-07-20T15:01:51.568Z,32.2
2018-07-20T15:02:51.501Z,32.2
2018-07-20T15:03:51.538Z,32.2
2018-07-20T15:04:51.579Z,31.6
2018-07-20T15:05:51.543Z,31.6
2018-07-20T15:07:51.452Z,31.0
2018-07-20T15:08:51.490Z,31.0
2018-07-20T15:09:51.468Z,30.9
2018-07-20T15:10:52.226Z,30.9
2018-07-20T15:11:51.482Z,30.8
2018-07-20T15:12:51.468Z,30.8
2018-07-20T15:13:51.557Z,30.8
2018-07-20T15:14:51.582Z,30.8
2018-07-20T15:15:51.548Z,30.8
2018-07-20T15:17:51.559Z,30.4
2018-07-20T15:18:51.610Z,30.4
2018-07-20T15:19:51.519Z,29.5
2018-07-20T15:21:01.528Z,29.5
2018-07-20T15:21:52.045Z,29.5
2018-07-20T15:22:51.550Z,29.8
2018-07-20T15:23:51.500Z,29.8
2018-07-20T15:24:51.612Z,30.2
2018-07-20T15:25:51.578Z,30.2
2018-07-20T15:26:51.604Z,30.2
2018-07-20T15:27:51.536Z,30.2
2018-07-20T15:28:51.516Z,30.2
2018-07-20T15:29:51.566Z,30.2
2018-07-20T15:32:56.786Z,30.2
2018-07-20T15:33:56.730Z,31.0
2018-07-20T15:34:56.741Z,31.5
2018-07-20T15:35:56.748Z,31.5
2018-07-20T15:36:56.776Z,31.5
2018-07-20T15:37:56.789Z,31.7
2018-07-20T15:38:56.656Z,31.7
2018-07-20T15:39:56.754Z,31.6
2018-07-20T15:40:56.787Z,31.6
2018-07-20T15:41:56.859Z,31.6
2018-07-20T15:42:56.696Z,30.2
2018-07-20T15:43:56.779Z,30.2
2018-07-20T15:46:05.700Z,29.9
2018-07-20T15:46:56.962Z,29.9
2018-07-20T15:48:56.711Z,29.9
2018-07-20T15:59:22.093Z,30.3
2018-07-20T16:01:21.860Z,31.6
2018-07-20T16:02:22.451Z,31.6
2018-07-20T16:03:23.389Z,31.8
2018-07-20T16:06:21.984Z,30.9
2018-07-20T16:07:22.488Z,30.9
2018-07-20T16:08:21.981Z,30.9
2018-07-20T16:09:24.534Z,30.9
2018-07-20T16:10:22.002Z,30.7
2018-07-20T16:11:22.682Z,30.7
2018-07-20T16:12:22.051Z,30.7
2018-07-20T16:13:22.571Z,30.9
2018-07-20T16:14:23.909Z,30.9
2018-07-20T16:16:23.760Z,31.0
2018-07-20T16:18:16.609Z,0.0
2018-07-20T16:18:25.775Z,0.0
2018-07-20T16:19:25.783Z,31.0
2018-07-20T16:20:25.778Z,31.0
2018-07-20T16:21:25.717Z,31.6
2018-07-20T16:22:25.739Z,31.6
2018-07-20T16:23:25.948Z,31.2
2018-07-20T16:24:27.135Z,31.2
2018-07-20T16:25:26.366Z,31.2
2018-07-20T16:26:25.941Z,31.0
2018-07-20T16:27:25.876Z,31.0
2018-07-20T16:28:29.591Z,30.4
2018-07-20T16:29:25.755Z,30.4
2018-07-20T16:30:25.780Z,30.4
2018-07-20T16:31:25.714Z,30.2
2018-07-20T16:32:25.651Z,30.2
2018-07-20T16:33:25.763Z,30.4
2018-07-20T16:34:25.680Z,30.4
2018-07-20T16:35:27.689Z,30.4
2018-07-20T16:36:27.696Z,30.6
2018-07-20T16:37:25.697Z,30.6